sensor_id;sensor_type;location;lat;lon;timestamp;pressure;altitude;pressure_sealevel;temperature;humidity
55077;BME280;40971;44.702;11.030;2023-12-04T00:09:03;102408.34;;;-0.30;100.00
55077;BME280;40971;44.702;11.030;2023-12-04T00:19:05;102391.75;;;-0.23;100.00
55077;BME280;40971;44.702;11.030;2023-12-04T00:29:07;102377.50;;;-0.35;100.00
55077;BME280;40971;44.702;11.030;2023-12-04T00:39:08;102370.03;;;-0.42;100.00
55077;BME280;40971;44.702;11.030;2023-12-04T00:49:10;102367.56;;;-0.45;100.00
55077;BME280;40971;44.702;11.030;2023-12-04T00:59:11;102368.97;;;-0.88;100.00
55077;BME280;40971;44.702;11.030;2023-12-04T01:09:14;102361.53;;;-1.25;100.00
55077;BME280;40971;44.702;11.030;2023-12-04T01:19:16;102355.63;;;-1.28;100.00
55077;BME280;40971;44.702;11.030;2023-12-04T01:29:17;102356.44;;;-1.26;100.00
55077;BME280;40971;44.702;11.030;2023-12-04T01:39:20;102357.41;;;-1.58;100.00
55077;BME280;40971;44.702;11.030;2023-12-04T01:49:23;102333.19;;;-2.11;100.00
55077;BME280;40971;44.702;11.030;2023-12-04T01:59:26;102337.06;;;-1.67;100.00
55077;BME280;40971;44.702;11.030;2023-12-04T02:09:29;102323.31;;;-1.67;100.00
55077;BME280;40971;44.702;11.030;2023-12-04T02:19:32;102319.69;;;-1.06;100.00
55077;BME280;40971;44.702;11.030;2023-12-04T02:29:40;102324.00;;;-1.33;100.00
55077;BME280;40971;44.702;11.030;2023-12-04T02:39:45;102327.97;;;-1.23;100.00
55077;BME280;40971;44.702;11.030;2023-12-04T02:49:48;102339.03;;;-1.47;100.00
55077;BME280;40971;44.702;11.030;2023-12-04T02:59:51;102347.78;;;-1.81;100.00
55077;BME280;40971;44.702;11.030;2023-12-04T03:09:55;102319.22;;;-1.45;100.00
55077;BME280;40971;44.702;11.030;2023-12-04T03:19:56;102341.19;;;-1.61;100.00
55077;BME280;40971;44.702;11.030;2023-12-04T03:29:57;102330.81;;;-1.88;100.00
55077;BME280;40971;44.702;11.030;2023-12-04T03:40:01;102323.69;;;-2.09;100.00
55077;BME280;40971;44.702;11.030;2023-12-04T03:50:02;102333.56;;;-2.55;100.00
55077;BME280;40971;44.702;11.030;2023-12-04T04:00:06;102315.97;;;-2.09;100.00
55077;BME280;40971;44.702;11.030;2023-12-04T04:10:08;102319.44;;;-2.10;100.00
55077;BME280;40971;44.702;11.030;2023-12-04T04:20:11;102331.56;;;-1.84;100.00
55077;BME280;40971;44.702;11.030;2023-12-04T04:30:13;102330.81;;;-1.88;100.00
55077;BME280;40971;44.702;11.030;2023-12-04T04:40:15;102323.81;;;-1.84;100.00
55077;BME280;40971;44.702;11.030;2023-12-04T04:50:17;102316.06;;;-1.83;100.00
55077;BME280;40971;44.702;11.030;2023-12-04T05:00:21;102321.28;;;-2.15;100.00
55077;BME280;40971;44.702;11.030;2023-12-04T05:10:22;102294.47;;;-2.08;100.00
55077;BME280;40971;44.702;11.030;2023-12-04T05:20:23;102292.50;;;-2.00;100.00
55077;BME280;40971;44.702;11.030;2023-12-04T05:30:27;102293.53;;;-2.05;100.00
55077;BME280;40971;44.702;11.030;2023-12-04T05:40:28;102305.41;;;-2.30;100.00
55077;BME280;40971;44.702;11.030;2023-12-04T05:50:29;102303.53;;;-2.24;100.00
55077;BME280;40971;44.702;11.030;2023-12-04T06:00:31;102309.63;;;-1.97;100.00
55077;BME280;40971;44.702;11.030;2023-12-04T06:10:32;102299.22;;;-1.65;100.00
55077;BME280;40971;44.702;11.030;2023-12-04T06:20:36;102310.41;;;-1.95;100.00
55077;BME280;40971;44.702;11.030;2023-12-04T06:30:38;102320.06;;;-2.02;100.00
55077;BME280;40971;44.702;11.030;2023-12-04T06:40:40;102326.72;;;-1.95;100.00
55077;BME280;40971;44.702;11.030;2023-12-04T06:50:44;102320.28;;;-1.80;100.00
55077;BME280;40971;44.702;11.030;2023-12-04T07:00:46;102334.06;;;-1.53;100.00
55077;BME280;40971;44.702;11.030;2023-12-04T07:10:49;102318.22;;;-1.69;100.00
55077;BME280;40971;44.702;11.030;2023-12-04T07:20:51;102320.91;;;-1.44;100.00
55077;BME280;40971;44.702;11.030;2023-12-04T07:30:53;102292.84;;;-1.01;100.00
55077;BME280;40971;44.702;11.030;2023-12-04T07:40:55;102280.91;;;-1.03;100.00
55077;BME280;40971;44.702;11.030;2023-12-04T07:50:59;102276.94;;;-0.89;100.00
55077;BME280;40971;44.702;11.030;2023-12-04T08:01:01;102312.31;;;-0.18;100.00
55077;BME280;40971;44.702;11.030;2023-12-04T08:11:03;102290.72;;;-0.40;100.00
55077;BME280;40971;44.702;11.030;2023-12-04T08:21:05;102312.84;;;-0.09;100.00
55077;BME280;40971;44.702;11.030;2023-12-04T08:31:09;102311.69;;;0.22;100.00
55077;BME280;40971;44.702;11.030;2023-12-04T08:41:11;102314.44;;;0.17;100.00
55077;BME280;40971;44.702;11.030;2023-12-04T08:51:16;102305.59;;;0.23;100.00
55077;BME280;40971;44.702;11.030;2023-12-04T09:01:19;102310.31;;;0.56;100.00
55077;BME280;40971;44.702;11.030;2023-12-04T09:11:19;102290.81;;;0.91;100.00
55077;BME280;40971;44.702;11.030;2023-12-04T09:21:21;102267.63;;;0.88;100.00
55077;BME280;40971;44.702;11.030;2023-12-04T09:31:21;102249.81;;;1.21;100.00
55077;BME280;40971;44.702;11.030;2023-12-04T09:41:22;102221.72;;;1.32;97.08
55077;BME280;40971;44.702;11.030;2023-12-04T09:51:25;102243.97;;;1.75;91.11
55077;BME280;40971;44.702;11.030;2023-12-04T10:01:29;102222.06;;;2.18;91.93
55077;BME280;40971;44.702;11.030;2023-12-04T10:11:31;102141.75;;;1.81;89.36
55077;BME280;40971;44.702;11.030;2023-12-04T10:21:36;102140.00;;;1.98;90.82
55077;BME280;40971;44.702;11.030;2023-12-04T10:31:37;102186.06;;;2.12;93.80
55077;BME280;40971;44.702;11.030;2023-12-04T10:41:39;102148.81;;;2.13;94.41
55077;BME280;40971;44.702;11.030;2023-12-04T10:51:44;102126.34;;;2.48;92.11
55077;BME280;40971;44.702;11.030;2023-12-04T11:01:47;102121.78;;;2.85;88.67
55077;BME280;40971;44.702;11.030;2023-12-04T11:11:53;102102.34;;;3.10;85.49
55077;BME280;40971;44.702;11.030;2023-12-04T11:21:58;102094.56;;;3.41;84.50
55077;BME280;40971;44.702;11.030;2023-12-04T11:32:05;102079.56;;;3.46;84.13
55077;BME280;40971;44.702;11.030;2023-12-04T11:42:07;102072.34;;;3.04;79.33
55077;BME280;40971;44.702;11.030;2023-12-04T11:52:11;102061.63;;;3.26;80.50
55077;BME280;40971;44.702;11.030;2023-12-04T12:02:13;102050.28;;;2.96;81.04
55077;BME280;40971;44.702;11.030;2023-12-04T12:12:15;102050.13;;;3.30;83.34
55077;BME280;40971;44.702;11.030;2023-12-04T12:22:18;102029.75;;;3.22;80.56
55077;BME280;40971;44.702;11.030;2023-12-04T12:32:23;102014.72;;;2.96;79.82
55077;BME280;40971;44.702;11.030;2023-12-04T12:42:29;101996.31;;;3.16;81.18
55077;BME280;40971;44.702;11.030;2023-12-04T12:52:33;102002.22;;;3.49;80.30
55077;BME280;40971;44.702;11.030;2023-12-04T13:02:36;102010.88;;;3.50;81.63
55077;BME280;40971;44.702;11.030;2023-12-04T13:12:39;101993.28;;;3.39;82.89
55077;BME280;40971;44.702;11.030;2023-12-04T13:22:43;101979.31;;;3.26;81.34
55077;BME280;40971;44.702;11.030;2023-12-04T13:32:45;101977.44;;;3.13;83.07
55077;BME280;40971;44.702;11.030;2023-12-04T13:42:50;101966.50;;;3.23;80.97
55077;BME280;40971;44.702;11.030;2023-12-04T13:53:10;101970.50;;;3.29;78.79
55077;BME280;40971;44.702;11.030;2023-12-04T14:03:14;101949.78;;;3.43;79.13
55077;BME280;40971;44.702;11.030;2023-12-04T14:13:16;101945.75;;;3.37;79.69
55077;BME280;40971;44.702;11.030;2023-12-04T14:23:18;101935.78;;;3.30;82.25
55077;BME280;40971;44.702;11.030;2023-12-04T14:33:20;101940.56;;;3.22;84.80
55077;BME280;40971;44.702;11.030;2023-12-04T14:43:23;101956.94;;;3.08;87.21
55077;BME280;40971;44.702;11.030;2023-12-04T14:53:26;101945.44;;;2.97;88.46
55077;BME280;40971;44.702;11.030;2023-12-04T15:03:36;101944.97;;;2.90;88.91
55077;BME280;40971;44.702;11.030;2023-12-04T15:13:57;101949.22;;;2.75;90.43
55077;BME280;40971;44.702;11.030;2023-12-04T15:24:20;101941.81;;;2.37;92.58
55077;BME280;40971;44.702;11.030;2023-12-04T15:34:24;101934.03;;;2.04;96.62
55077;BME280;40971;44.702;11.030;2023-12-04T15:44:28;101926.59;;;1.63;100.00
55077;BME280;40971;44.702;11.030;2023-12-04T15:54:32;101928.78;;;1.54;100.00
55077;BME280;40971;44.702;11.030;2023-12-04T16:04:33;101910.88;;;1.32;100.00
55077;BME280;40971;44.702;11.030;2023-12-04T16:14:37;101898.44;;;1.22;100.00
55077;BME280;40971;44.702;11.030;2023-12-04T16:24:38;101920.25;;;1.35;100.00
55077;BME280;40971;44.702;11.030;2023-12-04T16:34:41;101919.63;;;1.30;100.00
55077;BME280;40971;44.702;11.030;2023-12-04T16:44:42;101901.56;;;1.11;100.00
55077;BME280;40971;44.702;11.030;2023-12-04T16:54:44;101899.81;;;1.11;100.00
55077;BME280;40971;44.702;11.030;2023-12-04T17:04:47;101897.69;;;1.20;100.00
55077;BME280;40971;44.702;11.030;2023-12-04T17:14:48;101899.16;;;1.25;100.00
55077;BME280;40971;44.702;11.030;2023-12-04T17:24:50;101873.09;;;1.28;100.00
55077;BME280;40971;44.702;11.030;2023-12-04T17:34:51;101887.50;;;1.34;100.00
55077;BME280;40971;44.702;11.030;2023-12-04T17:44:53;101899.72;;;1.13;100.00
55077;BME280;40971;44.702;11.030;2023-12-04T17:54:53;101903.22;;;1.12;100.00
55077;BME280;40971;44.702;11.030;2023-12-04T18:04:54;101883.91;;;1.19;100.00
55077;BME280;40971;44.702;11.030;2023-12-04T18:14:56;101873.69;;;1.16;100.00
55077;BME280;40971;44.702;11.030;2023-12-04T18:24:58;101882.81;;;1.23;100.00
55077;BME280;40971;44.702;11.030;2023-12-04T18:35:00;101872.47;;;1.23;100.00
55077;BME280;40971;44.702;11.030;2023-12-04T18:45:04;101869.44;;;1.32;100.00
55077;BME280;40971;44.702;11.030;2023-12-04T18:55:09;101865.66;;;1.03;100.00
55077;BME280;40971;44.702;11.030;2023-12-04T19:05:11;101862.66;;;0.77;100.00
55077;BME280;40971;44.702;11.030;2023-12-04T19:15:13;101848.47;;;0.67;100.00
55077;BME280;40971;44.702;11.030;2023-12-04T19:25:14;101834.00;;;0.63;100.00
55077;BME280;40971;44.702;11.030;2023-12-04T19:35:16;101831.66;;;0.58;100.00
55077;BME280;40971;44.702;11.030;2023-12-04T19:45:19;101823.19;;;0.54;100.00
55077;BME280;40971;44.702;11.030;2023-12-04T19:55:20;101815.41;;;0.54;100.00
55077;BME280;40971;44.702;11.030;2023-12-04T20:05:25;101820.59;;;0.54;100.00
55077;BME280;40971;44.702;11.030;2023-12-04T20:15:27;101785.84;;;0.60;100.00
55077;BME280;40971;44.702;11.030;2023-12-04T20:25:27;101797.44;;;0.51;100.00
55077;BME280;40971;44.702;11.030;2023-12-04T20:35:29;101781.66;;;0.57;100.00
55077;BME280;40971;44.702;11.030;2023-12-04T20:45:31;101776.78;;;0.69;100.00
55077;BME280;40971;44.702;11.030;2023-12-04T20:55:33;101752.75;;;0.31;100.00
55077;BME280;40971;44.702;11.030;2023-12-04T21:05:36;101765.19;;;0.41;100.00
55077;BME280;40971;44.702;11.030;2023-12-04T21:15:38;101748.63;;;0.63;100.00
55077;BME280;40971;44.702;11.030;2023-12-04T21:25:40;101726.97;;;0.29;100.00
55077;BME280;40971;44.702;11.030;2023-12-04T21:35:42;101740.31;;;0.39;100.00
55077;BME280;40971;44.702;11.030;2023-12-04T21:45:44;101723.50;;;0.47;100.00
55077;BME280;40971;44.702;11.030;2023-12-04T21:55:48;101723.22;;;0.18;100.00
55077;BME280;40971;44.702;11.030;2023-12-04T22:05:49;101723.16;;;0.36;100.00
55077;BME280;40971;44.702;11.030;2023-12-04T22:15:51;101722.47;;;-0.03;100.00
55077;BME280;40971;44.702;11.030;2023-12-04T22:25:52;101713.66;;;0.01;100.00
55077;BME280;40971;44.702;11.030;2023-12-04T22:35:54;101684.34;;;0.02;100.00
55077;BME280;40971;44.702;11.030;2023-12-04T22:45:56;101675.50;;;0.06;100.00
55077;BME280;40971;44.702;11.030;2023-12-04T22:55:58;101687.44;;;0.09;100.00
55077;BME280;40971;44.702;11.030;2023-12-04T23:05:59;101691.38;;;-0.02;100.00
55077;BME280;40971;44.702;11.030;2023-12-04T23:16:03;101660.31;;;0.00;100.00
55077;BME280;40971;44.702;11.030;2023-12-04T23:26:06;101672.13;;;0.23;100.00
55077;BME280;40971;44.702;11.030;2023-12-04T23:36:09;101659.91;;;-0.10;100.00
55077;BME280;40971;44.702;11.030;2023-12-04T23:46:10;101667.28;;;-0.02;100.00
55077;BME280;40971;44.702;11.030;2023-12-04T23:56:13;101642.97;;;0.02;100.00
